sensor_id;sensor_type;location;lat;lon;timestamp;P1;durP1;ratioP1;P2;durP2;ratioP2
23336;SDS011;11840;45.414;12.372;2022-09-16T06:58:32;5.65;;;1.30;;
23336;SDS011;11840;45.414;12.372;2022-09-16T07:00:58;4.00;;;1.50;;
23336;SDS011;11840;45.414;12.372;2022-09-16T07:03:29;4.90;;;1.40;;
23336;SDS011;11840;45.414;12.372;2022-09-16T07:05:58;3.40;;;1.50;;
23336;SDS011;11840;45.414;12.372;2022-09-16T07:08:27;3.35;;;1.33;;
23336;SDS011;11840;45.414;12.372;2022-09-16T07:10:57;9.07;;;1.73;;
23336;SDS011;11840;45.414;12.372;2022-09-16T07:13:23;4.05;;;1.52;;
23336;SDS011;11840;45.414;12.372;2022-09-16T07:15:49;5.63;;;1.67;;
23336;SDS011;11840;45.414;12.372;2022-09-16T07:18:14;3.35;;;1.38;;
23336;SDS011;11840;45.414;12.372;2022-09-16T07:20:40;4.88;;;1.35;;
23336;SDS011;11840;45.414;12.372;2022-09-16T07:23:07;3.83;;;1.40;;
23336;SDS011;11840;45.414;12.372;2022-09-16T07:25:33;5.60;;;1.30;;
23336;SDS011;11840;45.414;12.372;2022-09-16T07:27:59;7.78;;;1.60;;
23336;SDS011;11840;45.414;12.372;2022-09-16T07:30:25;4.28;;;1.40;;
23336;SDS011;11840;45.414;12.372;2022-09-16T07:32:54;4.40;;;1.42;;
23336;SDS011;11840;45.414;12.372;2022-09-16T07:35:20;3.92;;;1.55;;
23336;SDS011;11840;45.414;12.372;2022-09-16T07:37:46;6.38;;;1.52;;
23336;SDS011;11840;45.414;12.372;2022-09-16T07:40:13;6.65;;;1.40;;
23336;SDS011;11840;45.414;12.372;2022-09-16T07:42:39;4.80;;;1.40;;
23336;SDS011;11840;45.414;12.372;2022-09-16T07:45:06;10.48;;;1.67;;
23336;SDS011;11840;45.414;12.372;2022-09-16T07:47:33;8.48;;;1.88;;
23336;SDS011;11840;45.414;12.372;2022-09-16T07:49:59;7.63;;;2.40;;
23336;SDS011;11840;45.414;12.372;2022-09-16T07:52:25;6.05;;;1.90;;
23336;SDS011;11840;45.414;12.372;2022-09-16T07:54:54;4.63;;;1.30;;
23336;SDS011;11840;45.414;12.372;2022-09-16T07:57:21;6.72;;;1.48;;
23336;SDS011;11840;45.414;12.372;2022-09-16T07:59:47;5.93;;;1.88;;
23336;SDS011;11840;45.414;12.372;2022-09-16T08:02:13;7.90;;;1.88;;
23336;SDS011;11840;45.414;12.372;2022-09-16T08:04:38;5.18;;;2.05;;
23336;SDS011;11840;45.414;12.372;2022-09-16T08:07:05;6.07;;;1.70;;
23336;SDS011;11840;45.414;12.372;2022-09-16T08:09:31;8.57;;;1.45;;
23336;SDS011;11840;45.414;12.372;2022-09-16T08:11:57;5.95;;;1.60;;
23336;SDS011;11840;45.414;12.372;2022-09-16T08:14:24;7.35;;;1.60;;
23336;SDS011;11840;45.414;12.372;2022-09-16T08:16:49;5.40;;;1.75;;
23336;SDS011;11840;45.414;12.372;2022-09-16T08:19:16;9.10;;;1.48;;
23336;SDS011;11840;45.414;12.372;2022-09-16T08:21:41;6.70;;;1.55;;
23336;SDS011;11840;45.414;12.372;2022-09-16T08:24:08;10.20;;;2.08;;
23336;SDS011;11840;45.414;12.372;2022-09-16T08:26:34;6.97;;;1.67;;
23336;SDS011;11840;45.414;12.372;2022-09-16T08:29:00;4.93;;;1.58;;
23336;SDS011;11840;45.414;12.372;2022-09-16T08:31:27;8.32;;;1.67;;
23336;SDS011;11840;45.414;12.372;2022-09-16T08:33:52;8.43;;;1.98;;
23336;SDS011;11840;45.414;12.372;2022-09-16T08:36:19;7.82;;;2.17;;
23336;SDS011;11840;45.414;12.372;2022-09-16T08:38:45;7.57;;;1.90;;
23336;SDS011;11840;45.414;12.372;2022-09-16T08:46:33;7.15;;;1.55;;
23336;SDS011;11840;45.414;12.372;2022-09-16T08:49:06;10.95;;;1.88;;
23336;SDS011;11840;45.414;12.372;2022-09-16T08:51:35;8.55;;;1.70;;
23336;SDS011;11840;45.414;12.372;2022-09-16T08:54:44;11.85;;;1.95;;
23336;SDS011;11840;45.414;12.372;2022-09-16T08:56:52;8.30;;;1.75;;
23336;SDS011;11840;45.414;12.372;2022-09-16T08:59:20;10.20;;;2.10;;
23336;SDS011;11840;45.414;12.372;2022-09-16T09:01:49;6.20;;;1.50;;
23336;SDS011;11840;45.414;12.372;2022-09-16T09:04:19;5.28;;;1.77;;
23336;SDS011;11840;45.414;12.372;2022-09-16T09:06:57;8.57;;;2.00;;
23336;SDS011;11840;45.414;12.372;2022-09-16T09:32:23;7.28;;;2.22;;
23336;SDS011;11840;45.414;12.372;2022-09-16T09:35:03;7.20;;;2.20;;
23336;SDS011;11840;45.414;12.372;2022-09-16T09:47:41;8.00;;;2.10;;
23336;SDS011;11840;45.414;12.372;2022-09-16T09:50:14;8.23;;;2.38;;
23336;SDS011;11840;45.414;12.372;2022-09-16T09:53:27;6.80;;;1.77;;
23336;SDS011;11840;45.414;12.372;2022-09-16T09:55:30;10.93;;;2.13;;
23336;SDS011;11840;45.414;12.372;2022-09-16T09:58:02;11.65;;;2.22;;
23336;SDS011;11840;45.414;12.372;2022-09-16T10:00:30;10.85;;;2.47;;
23336;SDS011;11840;45.414;12.372;2022-09-16T10:03:04;12.80;;;2.53;;
23336;SDS011;11840;45.414;12.372;2022-09-16T10:07:57;12.40;;;2.15;;
23336;SDS011;11840;45.414;12.372;2022-09-16T10:10:25;10.38;;;2.10;;
23336;SDS011;11840;45.414;12.372;2022-09-16T10:12:51;5.75;;;1.98;;
23336;SDS011;11840;45.414;12.372;2022-09-16T10:17:47;8.48;;;2.30;;
23336;SDS011;11840;45.414;12.372;2022-09-16T10:20:21;11.57;;;2.70;;
23336;SDS011;11840;45.414;12.372;2022-09-16T10:22:53;12.68;;;2.92;;
23336;SDS011;11840;45.414;12.372;2022-09-16T10:25:21;10.75;;;2.30;;
23336;SDS011;11840;45.414;12.372;2022-09-16T10:28:02;10.23;;;2.22;;
23336;SDS011;11840;45.414;12.372;2022-09-16T10:30:48;8.82;;;1.92;;
23336;SDS011;11840;45.414;12.372;2022-09-16T10:33:32;10.35;;;2.90;;
23336;SDS011;11840;45.414;12.372;2022-09-16T10:36:01;8.95;;;2.60;;
23336;SDS011;11840;45.414;12.372;2022-09-16T10:38:40;11.70;;;2.20;;
23336;SDS011;11840;45.414;12.372;2022-09-16T10:41:08;10.35;;;2.20;;
23336;SDS011;11840;45.414;12.372;2022-09-16T10:43:35;7.97;;;2.10;;
23336;SDS011;11840;45.414;12.372;2022-09-16T10:46:01;11.93;;;2.47;;
23336;SDS011;11840;45.414;12.372;2022-09-16T10:48:28;12.38;;;2.72;;
23336;SDS011;11840;45.414;12.372;2022-09-16T10:51:03;10.43;;;2.35;;
23336;SDS011;11840;45.414;12.372;2022-09-16T10:53:37;15.45;;;3.00;;
23336;SDS011;11840;45.414;12.372;2022-09-16T10:56:04;15.20;;;3.38;;
23336;SDS011;11840;45.414;12.372;2022-09-16T10:58:31;12.88;;;3.25;;
23336;SDS011;11840;45.414;12.372;2022-09-16T11:03:40;11.73;;;3.05;;
23336;SDS011;11840;45.414;12.372;2022-09-16T11:11:28;14.90;;;3.45;;
23336;SDS011;11840;45.414;12.372;2022-09-16T11:42:23;16.73;;;3.45;;
23336;SDS011;11840;45.414;12.372;2022-09-16T11:57:37;10.30;;;2.72;;
23336;SDS011;11840;45.414;12.372;2022-09-16T12:00:13;12.55;;;2.58;;
23336;SDS011;11840;45.414;12.372;2022-09-16T12:02:48;12.38;;;2.80;;
23336;SDS011;11840;45.414;12.372;2022-09-16T12:05:21;16.00;;;2.53;;
23336;SDS011;11840;45.414;12.372;2022-09-16T12:08:02;10.32;;;1.92;;
23336;SDS011;11840;45.414;12.372;2022-09-16T12:10:35;10.50;;;2.88;;
23336;SDS011;11840;45.414;12.372;2022-09-16T12:15:30;8.73;;;2.70;;
23336;SDS011;11840;45.414;12.372;2022-09-16T12:18:06;5.82;;;1.75;;
23336;SDS011;11840;45.414;12.372;2022-09-16T12:20:39;8.40;;;2.55;;
23336;SDS011;11840;45.414;12.372;2022-09-16T12:25:42;7.95;;;2.10;;
23336;SDS011;11840;45.414;12.372;2022-09-16T12:28:19;14.52;;;2.63;;
23336;SDS011;11840;45.414;12.372;2022-09-16T12:30:51;8.02;;;2.20;;
23336;SDS011;11840;45.414;12.372;2022-09-16T12:35:57;13.73;;;2.90;;
23336;SDS011;11840;45.414;12.372;2022-09-16T12:38:24;10.02;;;2.20;;
23336;SDS011;11840;45.414;12.372;2022-09-16T12:46:25;15.48;;;2.88;;
23336;SDS011;11840;45.414;12.372;2022-09-16T13:01:48;7.93;;;1.50;;
23336;SDS011;11840;45.414;12.372;2022-09-16T13:04:16;7.38;;;1.60;;
23336;SDS011;11840;45.414;12.372;2022-09-16T13:06:46;13.00;;;2.85;;
23336;SDS011;11840;45.414;12.372;2022-09-16T13:09:23;9.10;;;2.45;;
23336;SDS011;11840;45.414;12.372;2022-09-16T13:14:20;13.30;;;2.20;;
23336;SDS011;11840;45.414;12.372;2022-09-16T13:16:56;8.07;;;1.80;;
23336;SDS011;11840;45.414;12.372;2022-09-16T13:22:15;9.88;;;1.80;;
23336;SDS011;11840;45.414;12.372;2022-09-16T13:24:48;11.65;;;1.88;;
23336;SDS011;11840;45.414;12.372;2022-09-16T13:27:25;8.52;;;1.92;;
23336;SDS011;11840;45.414;12.372;2022-09-16T13:30:03;8.40;;;1.67;;
23336;SDS011;11840;45.414;12.372;2022-09-16T13:37:40;8.13;;;2.30;;
23336;SDS011;11840;45.414;12.372;2022-09-16T13:40:07;12.27;;;2.13;;
23336;SDS011;11840;45.414;12.372;2022-09-16T13:42:34;13.30;;;2.25;;
23336;SDS011;11840;45.414;12.372;2022-09-16T13:45:00;12.40;;;2.30;;
23336;SDS011;11840;45.414;12.372;2022-09-16T13:47:28;13.05;;;2.40;;
23336;SDS011;11840;45.414;12.372;2022-09-16T13:49:58;8.43;;;2.08;;
23336;SDS011;11840;45.414;12.372;2022-09-16T13:52:26;10.77;;;1.95;;
23336;SDS011;11840;45.414;12.372;2022-09-16T13:54:54;11.57;;;2.20;;
23336;SDS011;11840;45.414;12.372;2022-09-16T14:00:05;10.25;;;2.00;;
23336;SDS011;11840;45.414;12.372;2022-09-16T14:10:18;10.77;;;2.10;;
23336;SDS011;11840;45.414;12.372;2022-09-16T14:15:18;10.75;;;2.20;;
23336;SDS011;11840;45.414;12.372;2022-09-16T14:17:47;7.13;;;1.85;;
23336;SDS011;11840;45.414;12.372;2022-09-16T14:20:14;7.13;;;1.88;;
23336;SDS011;11840;45.414;12.372;2022-09-16T14:22:42;15.70;;;1.90;;
23336;SDS011;11840;45.414;12.372;2022-09-16T14:30:19;10.88;;;2.30;;
23336;SDS011;11840;45.414;12.372;2022-09-16T14:32:45;11.00;;;2.05;;
23336;SDS011;11840;45.414;12.372;2022-09-16T14:35:16;12.32;;;2.47;;
23336;SDS011;11840;45.414;12.372;2022-09-16T14:37:43;15.25;;;2.55;;
23336;SDS011;11840;45.414;12.372;2022-09-16T14:40:14;10.80;;;2.70;;
23336;SDS011;11840;45.414;12.372;2022-09-16T14:42:47;18.02;;;2.70;;
23336;SDS011;11840;45.414;12.372;2022-09-16T14:45:15;12.23;;;2.45;;
23336;SDS011;11840;45.414;12.372;2022-09-16T14:47:42;12.10;;;2.35;;
23336;SDS011;11840;45.414;12.372;2022-09-16T14:50:15;10.55;;;2.50;;
23336;SDS011;11840;45.414;12.372;2022-09-16T14:53:01;9.45;;;2.25;;
23336;SDS011;11840;45.414;12.372;2022-09-16T14:55:31;11.95;;;2.97;;
23336;SDS011;11840;45.414;12.372;2022-09-16T14:57:58;7.55;;;2.50;;
23336;SDS011;11840;45.414;12.372;2022-09-16T15:00:35;12.35;;;2.92;;
23336;SDS011;11840;45.414;12.372;2022-09-16T15:05:47;12.48;;;2.60;;
23336;SDS011;11840;45.414;12.372;2022-09-16T15:10:53;10.00;;;2.70;;
23336;SDS011;11840;45.414;12.372;2022-09-16T15:13:23;11.48;;;2.88;;
23336;SDS011;11840;45.414;12.372;2022-09-16T15:15:54;15.93;;;3.38;;
23336;SDS011;11840;45.414;12.372;2022-09-16T15:21:36;7.70;;;2.53;;
23336;SDS011;11840;45.414;12.372;2022-09-16T15:23:45;16.23;;;3.20;;
23336;SDS011;11840;45.414;12.372;2022-09-16T15:26:15;13.68;;;2.60;;
23336;SDS011;11840;45.414;12.372;2022-09-16T15:28:52;14.20;;;2.95;;
23336;SDS011;11840;45.414;12.372;2022-09-16T15:31:35;9.32;;;2.45;;
23336;SDS011;11840;45.414;12.372;2022-09-16T15:34:03;12.70;;;2.47;;
23336;SDS011;11840;45.414;12.372;2022-09-16T15:36:34;13.13;;;3.30;;
23336;SDS011;11840;45.414;12.372;2022-09-16T15:39:00;10.93;;;2.28;;
23336;SDS011;11840;45.414;12.372;2022-09-16T15:41:26;7.28;;;2.28;;
23336;SDS011;11840;45.414;12.372;2022-09-16T15:43:52;9.95;;;2.60;;
23336;SDS011;11840;45.414;12.372;2022-09-16T15:46:21;10.57;;;2.33;;
23336;SDS011;11840;45.414;12.372;2022-09-16T15:54:03;12.80;;;2.65;;
23336;SDS011;11840;45.414;12.372;2022-09-16T15:56:32;10.25;;;2.45;;
23336;SDS011;11840;45.414;12.372;2022-09-16T15:59:01;8.45;;;2.70;;
23336;SDS011;11840;45.414;12.372;2022-09-16T16:03:56;10.73;;;2.35;;
23336;SDS011;11840;45.414;12.372;2022-09-16T16:09:15;13.18;;;2.90;;
23336;SDS011;11840;45.414;12.372;2022-09-16T16:11:52;8.10;;;2.17;;
23336;SDS011;11840;45.414;12.372;2022-09-16T16:14:19;20.92;;;3.25;;
23336;SDS011;11840;45.414;12.372;2022-09-16T16:16:44;8.55;;;2.95;;
23336;SDS011;11840;45.414;12.372;2022-09-16T16:19:10;12.23;;;2.65;;
23336;SDS011;11840;45.414;12.372;2022-09-16T16:21:39;9.02;;;2.38;;
23336;SDS011;11840;45.414;12.372;2022-09-16T16:26:36;7.07;;;2.30;;
23336;SDS011;11840;45.414;12.372;2022-09-16T16:29:02;10.23;;;2.08;;
23336;SDS011;11840;45.414;12.372;2022-09-16T16:31:28;4.85;;;2.10;;
23336;SDS011;11840;45.414;12.372;2022-09-16T16:33:54;9.25;;;2.00;;
23336;SDS011;11840;45.414;12.372;2022-09-16T16:36:20;8.30;;;2.83;;
23336;SDS011;11840;45.414;12.372;2022-09-16T16:38:46;6.82;;;2.17;;
23336;SDS011;11840;45.414;12.372;2022-09-16T16:41:19;10.43;;;2.40;;
23336;SDS011;11840;45.414;12.372;2022-09-16T16:43:46;11.65;;;2.78;;
23336;SDS011;11840;45.414;12.372;2022-09-16T16:46:12;7.72;;;2.60;;
23336;SDS011;11840;45.414;12.372;2022-09-16T16:48:37;7.47;;;2.25;;
23336;SDS011;11840;45.414;12.372;2022-09-16T16:51:07;8.57;;;2.30;;
23336;SDS011;11840;45.414;12.372;2022-09-16T16:53:33;11.15;;;2.90;;
23336;SDS011;11840;45.414;12.372;2022-09-16T16:58:29;10.63;;;2.33;;
23336;SDS011;11840;45.414;12.372;2022-09-16T17:00:55;8.80;;;2.50;;
23336;SDS011;11840;45.414;12.372;2022-09-16T17:03:21;11.55;;;2.50;;
23336;SDS011;11840;45.414;12.372;2022-09-16T17:05:47;11.43;;;2.60;;
23336;SDS011;11840;45.414;12.372;2022-09-16T17:08:14;14.18;;;2.67;;
23336;SDS011;11840;45.414;12.372;2022-09-16T17:10:40;10.93;;;2.60;;
23336;SDS011;11840;45.414;12.372;2022-09-16T17:13:09;13.90;;;2.97;;
23336;SDS011;11840;45.414;12.372;2022-09-16T17:15:35;12.07;;;2.42;;
23336;SDS011;11840;45.414;12.372;2022-09-16T17:18:01;13.73;;;2.70;;
23336;SDS011;11840;45.414;12.372;2022-09-16T17:20:26;12.15;;;2.75;;
23336;SDS011;11840;45.414;12.372;2022-09-16T17:22:52;12.25;;;3.08;;
23336;SDS011;11840;45.414;12.372;2022-09-16T17:25:18;8.48;;;2.50;;
23336;SDS011;11840;45.414;12.372;2022-09-16T17:27:44;8.27;;;2.60;;
23336;SDS011;11840;45.414;12.372;2022-09-16T17:30:10;11.93;;;2.80;;
23336;SDS011;11840;45.414;12.372;2022-09-16T17:32:36;14.25;;;3.30;;
23336;SDS011;11840;45.414;12.372;2022-09-16T17:35:02;7.80;;;2.45;;
23336;SDS011;11840;45.414;12.372;2022-09-16T17:37:28;9.75;;;2.50;;
23336;SDS011;11840;45.414;12.372;2022-09-16T17:39:54;10.75;;;3.00;;
23336;SDS011;11840;45.414;12.372;2022-09-16T17:42:20;14.15;;;3.22;;
23336;SDS011;11840;45.414;12.372;2022-09-16T17:44:46;10.45;;;2.63;;
23336;SDS011;11840;45.414;12.372;2022-09-16T17:47:12;10.07;;;2.70;;
23336;SDS011;11840;45.414;12.372;2022-09-16T17:49:38;19.65;;;3.20;;
23336;SDS011;11840;45.414;12.372;2022-09-16T17:52:04;13.05;;;3.60;;
23336;SDS011;11840;45.414;12.372;2022-09-16T17:54:31;15.38;;;3.42;;
23336;SDS011;11840;45.414;12.372;2022-09-16T17:56:56;11.40;;;3.45;;
23336;SDS011;11840;45.414;12.372;2022-09-16T18:00:11;11.65;;;3.47;;
23336;SDS011;11840;45.414;12.372;2022-09-16T18:02:37;14.68;;;3.22;;
23336;SDS011;11840;45.414;12.372;2022-09-16T18:05:04;10.88;;;3.30;;
23336;SDS011;11840;45.414;12.372;2022-09-16T18:07:30;12.88;;;3.10;;
23336;SDS011;11840;45.414;12.372;2022-09-16T18:09:56;16.20;;;3.67;;
23336;SDS011;11840;45.414;12.372;2022-09-16T18:12:22;11.70;;;3.60;;
23336;SDS011;11840;45.414;12.372;2022-09-16T18:14:48;12.05;;;3.17;;
23336;SDS011;11840;45.414;12.372;2022-09-16T18:17:14;15.13;;;4.38;;
23336;SDS011;11840;45.414;12.372;2022-09-16T18:19:40;11.27;;;2.65;;
23336;SDS011;11840;45.414;12.372;2022-09-16T18:22:06;9.55;;;3.05;;
23336;SDS011;11840;45.414;12.372;2022-09-16T18:24:31;6.78;;;2.47;;
23336;SDS011;11840;45.414;12.372;2022-09-16T18:26:57;8.35;;;2.05;;
23336;SDS011;11840;45.414;12.372;2022-09-16T18:29:24;7.30;;;1.95;;
23336;SDS011;11840;45.414;12.372;2022-09-16T18:31:50;5.18;;;2.03;;
23336;SDS011;11840;45.414;12.372;2022-09-16T18:34:17;5.05;;;1.50;;
23336;SDS011;11840;45.414;12.372;2022-09-16T18:36:44;11.52;;;1.38;;
23336;SDS011;11840;45.414;12.372;2022-09-16T18:39:11;26.65;;;2.70;;
23336;SDS011;11840;45.414;12.372;2022-09-16T18:41:38;45.33;;;4.47;;
23336;SDS011;11840;45.414;12.372;2022-09-16T18:44:06;67.60;;;6.38;;
23336;SDS011;11840;45.414;12.372;2022-09-16T18:46:35;46.95;;;4.50;;
23336;SDS011;11840;45.414;12.372;2022-09-16T18:49:02;61.40;;;5.93;;
23336;SDS011;11840;45.414;12.372;2022-09-16T18:51:30;71.95;;;6.95;;
23336;SDS011;11840;45.414;12.372;2022-09-16T18:53:57;27.35;;;3.08;;
23336;SDS011;11840;45.414;12.372;2022-09-16T18:56:25;4.03;;;1.10;;
23336;SDS011;11840;45.414;12.372;2022-09-16T18:58:52;10.18;;;1.60;;
23336;SDS011;11840;45.414;12.372;2022-09-16T19:03:47;7.72;;;1.13;;
23336;SDS011;11840;45.414;12.372;2022-09-16T19:06:13;6.50;;;1.55;;
23336;SDS011;11840;45.414;12.372;2022-09-16T19:08:39;18.77;;;2.60;;
23336;SDS011;11840;45.414;12.372;2022-09-16T19:11:05;42.38;;;8.75;;
23336;SDS011;11840;45.414;12.372;2022-09-16T19:13:32;25.67;;;6.15;;
23336;SDS011;11840;45.414;12.372;2022-09-16T19:15:58;20.85;;;4.07;;
23336;SDS011;11840;45.414;12.372;2022-09-16T19:18:24;17.77;;;3.33;;
23336;SDS011;11840;45.414;12.372;2022-09-16T19:20:53;24.00;;;3.83;;
23336;SDS011;11840;45.414;12.372;2022-09-16T19:23:20;40.42;;;7.00;;
23336;SDS011;11840;45.414;12.372;2022-09-16T19:25:45;36.70;;;5.88;;
23336;SDS011;11840;45.414;12.372;2022-09-16T19:28:12;24.27;;;4.03;;
23336;SDS011;11840;45.414;12.372;2022-09-16T19:30:37;10.55;;;2.35;;
23336;SDS011;11840;45.414;12.372;2022-09-16T19:33:04;8.77;;;1.75;;
23336;SDS011;11840;45.414;12.372;2022-09-16T19:35:30;9.48;;;1.70;;
23336;SDS011;11840;45.414;12.372;2022-09-16T19:37:57;12.93;;;2.13;;
23336;SDS011;11840;45.414;12.372;2022-09-16T19:40:23;12.23;;;1.92;;
23336;SDS011;11840;45.414;12.372;2022-09-16T19:42:49;7.90;;;1.80;;
23336;SDS011;11840;45.414;12.372;2022-09-16T19:45:15;14.30;;;1.98;;
23336;SDS011;11840;45.414;12.372;2022-09-16T19:47:41;7.75;;;1.55;;
23336;SDS011;11840;45.414;12.372;2022-09-16T19:50:07;5.78;;;1.52;;
23336;SDS011;11840;45.414;12.372;2022-09-16T19:52:32;5.68;;;1.13;;
23336;SDS011;11840;45.414;12.372;2022-09-16T19:55:01;6.10;;;1.55;;
23336;SDS011;11840;45.414;12.372;2022-09-16T19:57:27;5.88;;;1.42;;
23336;SDS011;11840;45.414;12.372;2022-09-16T19:59:53;6.63;;;1.30;;
23336;SDS011;11840;45.414;12.372;2022-09-16T20:02:18;6.07;;;1.50;;
23336;SDS011;11840;45.414;12.372;2022-09-16T20:04:43;6.30;;;1.30;;
23336;SDS011;11840;45.414;12.372;2022-09-16T20:07:10;5.43;;;1.02;;
23336;SDS011;11840;45.414;12.372;2022-09-16T20:09:45;4.55;;;1.00;;
23336;SDS011;11840;45.414;12.372;2022-09-16T20:12:11;5.97;;;1.00;;
23336;SDS011;11840;45.414;12.372;2022-09-16T20:14:38;2.30;;;0.60;;
23336;SDS011;11840;45.414;12.372;2022-09-16T20:17:04;2.95;;;0.70;;
23336;SDS011;11840;45.414;12.372;2022-09-16T20:19:30;4.80;;;0.90;;
23336;SDS011;11840;45.414;12.372;2022-09-16T20:21:56;3.63;;;0.63;;
23336;SDS011;11840;45.414;12.372;2022-09-16T20:24:23;5.75;;;0.77;;
23336;SDS011;11840;45.414;12.372;2022-09-16T20:26:53;2.42;;;0.60;;
23336;SDS011;11840;45.414;12.372;2022-09-16T20:29:19;1.20;;;0.32;;
23336;SDS011;11840;45.414;12.372;2022-09-16T20:31:46;5.30;;;0.65;;
23336;SDS011;11840;45.414;12.372;2022-09-16T20:34:13;2.92;;;0.63;;
23336;SDS011;11840;45.414;12.372;2022-09-16T20:36:40;0.90;;;0.40;;
23336;SDS011;11840;45.414;12.372;2022-09-16T20:39:07;3.20;;;0.82;;
23336;SDS011;11840;45.414;12.372;2022-09-16T20:41:33;3.22;;;0.65;;
23336;SDS011;11840;45.414;12.372;2022-09-16T20:44:00;3.53;;;0.60;;
23336;SDS011;11840;45.414;12.372;2022-09-16T20:46:27;4.72;;;0.68;;
23336;SDS011;11840;45.414;12.372;2022-09-16T20:48:54;3.30;;;0.90;;
23336;SDS011;11840;45.414;12.372;2022-09-16T20:51:20;1.80;;;0.70;;
23336;SDS011;11840;45.414;12.372;2022-09-16T20:53:50;2.60;;;0.45;;
23336;SDS011;11840;45.414;12.372;2022-09-16T20:56:16;2.08;;;0.50;;
23336;SDS011;11840;45.414;12.372;2022-09-16T20:58:42;1.63;;;0.40;;
23336;SDS011;11840;45.414;12.372;2022-09-16T21:01:22;3.85;;;0.70;;
23336;SDS011;11840;45.414;12.372;2022-09-16T21:03:52;10.60;;;0.90;;
23336;SDS011;11840;45.414;12.372;2022-09-16T21:06:19;9.60;;;1.90;;
23336;SDS011;11840;45.414;12.372;2022-09-16T21:08:45;16.95;;;1.70;;
23336;SDS011;11840;45.414;12.372;2022-09-16T21:11:13;23.38;;;2.33;;
23336;SDS011;11840;45.414;12.372;2022-09-16T21:13:39;14.45;;;1.70;;
23336;SDS011;11840;45.414;12.372;2022-09-16T21:16:09;7.10;;;1.15;;
23336;SDS011;11840;45.414;12.372;2022-09-16T21:18:36;6.72;;;1.25;;
23336;SDS011;11840;45.414;12.372;2022-09-16T21:21:03;10.15;;;1.10;;
23336;SDS011;11840;45.414;12.372;2022-09-16T21:23:30;5.35;;;0.60;;
23336;SDS011;11840;45.414;12.372;2022-09-16T21:26:00;6.75;;;0.90;;
